createdAt,value
2022-11-16T00:00:24.242Z,97879.47
2022-11-16T00:04:26.382Z,97875.50
2022-11-16T00:08:37.052Z,97866.44
2022-11-16T00:12:40.104Z,97848.66
2022-11-16T00:16:44.611Z,97845.41
2022-11-16T00:20:56.988Z,97857.03
2022-11-16T00:25:05.086Z,97844.88
2022-11-16T00:29:22.297Z,97840.56
2022-11-16T00:33:26.657Z,97836.88
2022-11-16T00:37:29.982Z,97819.25
2022-11-16T00:41:33.204Z,97824.38
2022-11-16T00:45:35.398Z,97808.50
2022-11-16T00:49:38.544Z,97809.88
2022-11-16T00:53:41.063Z,97814.69
2022-11-16T00:57:43.833Z,97815.09
2022-11-16T01:06:43.553Z,97792.63
2022-11-16T01:10:45.808Z,97807.25
2022-11-16T01:14:48.385Z,97804.53
2022-11-16T01:18:53.139Z,97803.69
2022-11-16T01:22:55.996Z,97792.78
2022-11-16T01:26:58.741Z,97780.47
2022-11-16T01:31:05.893Z,97770.63
2022-11-16T01:35:16.318Z,97761.81
2022-11-16T01:39:18.769Z,97758.63
2022-11-16T01:43:28.568Z,97754.63
2022-11-16T01:47:37.250Z,97741.00
2022-11-16T01:51:45.105Z,97740.41
2022-11-16T01:55:49.033Z,97721.25
2022-11-16T02:00:02.219Z,97714.97
2022-11-16T02:04:15.668Z,97708.28
2022-11-16T02:09:11.142Z,97695.72
2022-11-16T02:13:35.901Z,97695.44
2022-11-16T02:18:02.180Z,97677.44
2022-11-16T02:22:17.430Z,97672.63
2022-11-16T02:26:44.561Z,97663.94
2022-11-16T02:30:50.805Z,97656.88
2022-11-16T02:35:03.144Z,97646.81
2022-11-16T02:39:10.592Z,97636.16
2022-11-16T02:43:17.991Z,97631.69
2022-11-16T02:47:28.969Z,97626.03
2022-11-16T02:51:35.029Z,97634.16
2022-11-16T02:55:38.111Z,97640.56
2022-11-16T02:59:44.425Z,97636.34
2022-11-16T03:03:57.287Z,97624.78
2022-11-16T03:08:16.565Z,97620.06
2022-11-16T03:12:24.867Z,97616.00
2022-11-16T03:16:33.124Z,97614.78
2022-11-16T03:20:38.343Z,97605.78
2022-11-16T03:24:41.772Z,97613.59
2022-11-16T03:29:00.969Z,97607.41
2022-11-16T03:33:32.933Z,97611.00
2022-11-16T03:37:36.388Z,97598.47
2022-11-16T03:41:42.073Z,97604.41
2022-11-16T03:45:46.981Z,97597.63
2022-11-16T03:49:49.105Z,97585.13
2022-11-16T03:53:53.692Z,97583.72
2022-11-16T03:57:56.258Z,97599.63
2022-11-16T04:02:00.176Z,97590.47
2022-11-16T04:06:20.953Z,97583.94
2022-11-16T04:10:42.605Z,97583.25
2022-11-16T04:15:03.739Z,97577.06
2022-11-16T04:19:28.002Z,97575.66
2022-11-16T04:23:48.916Z,97558.56
2022-11-16T04:28:10.158Z,97575.38
2022-11-16T04:32:31.644Z,97568.22
2022-11-16T04:36:52.251Z,97570.91
2022-11-16T04:40:54.366Z,97574.97
2022-11-16T04:45:17.024Z,97576.75
2022-11-16T04:49:23.430Z,97565.09
2022-11-16T04:53:27.215Z,97553.53
2022-11-16T04:57:42.676Z,97538.78
2022-11-16T05:02:03.277Z,97543.81
2022-11-16T05:06:05.718Z,97544.25
2022-11-16T05:10:10.089Z,97539.47
2022-11-16T05:14:13.407Z,97530.09
2022-11-16T05:18:17.694Z,97536.34
2022-11-16T05:22:19.892Z,97537.31
2022-11-16T05:26:24.210Z,97530.38
2022-11-16T05:30:28.804Z,97520.91
2022-11-16T05:34:34.052Z,97532.97
2022-11-16T05:38:37.028Z,97520.31
2022-11-16T05:42:41.203Z,97520.09
2022-11-16T05:46:44.801Z,97505.88
2022-11-16T05:50:47.778Z,97501.81
2022-11-16T05:54:57.761Z,97499.94
2022-11-16T05:59:00.348Z,97504.47
2022-11-16T06:03:02.419Z,97510.03
2022-11-16T06:07:07.805Z,97511.78
2022-11-16T06:11:11.871Z,97512.41
2022-11-16T06:19:45.449Z,97509.53
2022-11-16T06:23:48.081Z,97510.41
2022-11-16T06:27:50.256Z,97500.31
2022-11-16T06:31:53.733Z,97504.47
2022-11-16T06:35:55.835Z,97504.56
2022-11-16T06:40:00.273Z,97498.03
2022-11-16T06:44:04.137Z,97496.84
2022-11-16T06:48:10.821Z,97500.78
2022-11-16T06:52:13.815Z,97508.25
2022-11-16T06:56:16.554Z,97502.03
2022-11-16T07:00:27.903Z,97505.38
2022-11-16T07:04:32.608Z,97516.66
2022-11-16T07:08:35.754Z,97510.72
2022-11-16T07:12:38.222Z,97522.78
2022-11-16T07:16:41.555Z,97517.06
2022-11-16T07:20:43.722Z,97499.63
2022-11-16T07:24:47.002Z,97490.72
2022-11-16T07:28:49.437Z,97487.13
2022-11-16T07:32:59.404Z,97483.28
2022-11-16T07:37:21.415Z,97479.28
2022-11-16T07:41:23.856Z,97479.66
2022-11-16T07:45:39.203Z,97466.50
2022-11-16T07:49:45.052Z,97462.00
2022-11-16T07:53:58.038Z,97450.78
2022-11-16T07:58:00.233Z,97433.88
2022-11-16T08:02:03.333Z,97424.06
2022-11-16T08:06:19.911Z,97424.72
2022-11-16T08:10:23.234Z,97413.91
2022-11-16T08:14:25.713Z,97424.19
2022-11-16T08:18:31.896Z,97437.44
2022-11-16T08:22:34.286Z,97441.84
2022-11-16T08:26:37.152Z,97449.97
2022-11-16T08:30:45.591Z,97461.03
2022-11-16T08:34:52.633Z,97456.97
2022-11-16T08:38:54.857Z,97456.22
2022-11-16T08:42:59.027Z,97454.97
2022-11-16T08:47:01.677Z,97457.97
2022-11-16T08:51:19.603Z,97468.06
2022-11-16T08:55:28.749Z,97470.59
2022-11-16T08:59:31.188Z,97458.78
2022-11-16T09:03:39.018Z,97454.09
2022-11-16T09:07:43.468Z,97452.22
2022-11-16T09:11:45.465Z,97449.22
2022-11-16T09:15:47.604Z,97430.13
2022-11-16T09:19:49.812Z,97436.41
2022-11-16T09:23:54.178Z,97433.78
2022-11-16T09:27:56.312Z,97429.75
2022-11-16T09:31:58.533Z,97426.41
2022-11-16T09:36:02.697Z,97421.03
2022-11-16T09:40:05.390Z,97423.56
2022-11-16T09:44:35.546Z,97417.59
2022-11-16T09:48:39.289Z,97410.22
2022-11-16T09:52:44.838Z,97398.69
2022-11-16T09:56:49.137Z,97414.50
2022-11-16T10:00:56.638Z,97414.16
2022-11-16T10:05:03.572Z,97416.94
2022-11-16T10:09:05.713Z,97401.53
2022-11-16T10:13:32.818Z,97394.88
2022-11-16T10:18:00.020Z,97381.63
2022-11-16T10:22:05.476Z,97378.84
2022-11-16T10:26:30.389Z,97370.06
2022-11-16T10:30:40.501Z,97371.91
2022-11-16T10:34:50.185Z,97365.81
2022-11-16T10:38:52.248Z,97365.00
2022-11-16T10:42:57.276Z,97362.31
2022-11-16T10:47:11.520Z,97354.66
2022-11-16T10:51:13.574Z,97346.22
2022-11-16T10:55:16.095Z,97343.34
2022-11-16T10:59:21.804Z,97342.13
2022-11-16T11:03:31.934Z,97332.53
2022-11-16T11:07:37.884Z,97329.16
2022-11-16T11:11:58.532Z,97315.44
2022-11-16T11:16:15.868Z,97304.28
2022-11-16T11:20:18.084Z,97296.09
2022-11-16T11:28:49.651Z,97286.41
2022-11-16T11:32:53.055Z,97274.47
2022-11-16T11:37:02.468Z,97257.09
2022-11-16T11:41:07.423Z,97251.81
2022-11-16T11:45:15.617Z,97234.47
2022-11-16T11:49:30.473Z,97245.78
2022-11-16T11:53:49.884Z,97240.03
2022-11-16T11:57:54.027Z,97231.16
2022-11-16T12:01:56.061Z,97230.44
2022-11-16T12:06:12.895Z,97211.94
2022-11-16T12:10:55.528Z,97194.16
2022-11-16T12:15:28.660Z,97186.50
2022-11-16T12:20:13.279Z,97189.81
2022-11-16T12:24:35.684Z,97178.16
2022-11-16T12:28:57.496Z,97168.31
2022-11-16T12:33:34.104Z,97163.63
2022-11-16T12:38:03.667Z,97154.50
2022-11-16T12:42:13.224Z,97158.81
2022-11-16T12:46:18.427Z,97155.81
2022-11-16T12:50:42.036Z,97158.84
2022-11-16T12:55:27.463Z,97149.53
2022-11-16T12:59:49.158Z,97162.88
2022-11-16T13:03:58.374Z,97152.63
2022-11-16T13:08:15.532Z,97143.34
2022-11-16T13:12:23.540Z,97144.66
2022-11-16T13:16:26.129Z,97136.22
2022-11-16T13:21:04.159Z,97138.09
2022-11-16T13:25:13.025Z,97130.75
2022-11-16T13:29:48.537Z,97130.16
2022-11-16T13:33:56.253Z,97128.59
2022-11-16T13:37:58.379Z,97120.19
2022-11-16T13:42:12.576Z,97110.09
2022-11-16T13:46:48.214Z,97110.53
2022-11-16T13:50:46.325Z,97107.88
2022-11-16T13:54:55.456Z,97117.16
2022-11-16T13:58:59.099Z,97111.97
2022-11-16T14:03:16.478Z,97113.09
2022-11-16T14:07:50.013Z,97119.16
2022-11-16T14:18:07.701Z,97112.84
2022-11-16T14:22:23.474Z,97103.63
2022-11-16T14:26:34.107Z,97124.88
2022-11-16T14:31:00.446Z,97127.56
2022-11-16T14:41:25.054Z,97130.97
2022-11-16T14:45:33.313Z,97133.22
2022-11-16T14:49:37.618Z,97127.06
2022-11-16T14:53:41.456Z,97123.56
2022-11-16T14:57:43.572Z,97117.66
2022-11-16T15:01:45.998Z,97122.34
2022-11-16T15:05:48.693Z,97126.41
2022-11-16T15:09:54.739Z,97116.00
2022-11-16T15:13:56.836Z,97125.13
2022-11-16T15:17:58.824Z,97131.91
2022-11-16T15:22:03.219Z,97128.78
2022-11-16T15:26:05.374Z,97122.81
2022-11-16T15:30:15.259Z,97127.41
2022-11-16T15:34:19.249Z,97127.97
2022-11-16T15:38:30.380Z,97124.22
2022-11-16T15:42:32.544Z,97128.06
2022-11-16T15:46:35.671Z,97131.75
2022-11-16T15:50:37.742Z,97141.88
2022-11-16T15:54:58.416Z,97143.91
2022-11-16T15:59:09.594Z,97146.34
2022-11-16T16:03:24.046Z,97153.84
2022-11-16T16:07:41.286Z,97158.03
2022-11-16T16:11:43.470Z,97161.06
2022-11-16T16:15:45.703Z,97165.06
2022-11-16T16:19:56.022Z,97176.94
2022-11-16T16:23:58.143Z,97166.59
2022-11-16T16:28:00.723Z,97165.72
2022-11-16T16:32:02.993Z,97170.81
2022-11-16T16:36:05.575Z,97173.34
2022-11-16T16:40:08.316Z,97178.44
2022-11-16T16:44:15.469Z,97183.31
2022-11-16T16:48:17.945Z,97185.72
2022-11-16T16:52:20.008Z,97199.59
2022-11-16T16:56:22.090Z,97200.69
2022-11-16T17:00:24.896Z,97199.44
2022-11-16T17:04:26.919Z,97197.09
2022-11-16T17:08:38.965Z,97213.13
2022-11-16T17:12:41.035Z,97216.91
2022-11-16T17:16:43.029Z,97219.88
2022-11-16T17:20:45.597Z,97226.94
2022-11-16T17:24:47.845Z,97237.41
2022-11-16T17:28:54.084Z,97240.16
2022-11-16T17:32:57.071Z,97248.47
2022-11-16T17:36:59.088Z,97259.59
2022-11-16T17:41:09.599Z,97256.31
2022-11-16T17:45:12.120Z,97269.34
2022-11-16T17:49:14.154Z,97250.66
2022-11-16T17:53:16.132Z,97257.13
2022-11-16T17:57:18.267Z,97262.47
2022-11-16T18:01:20.742Z,97256.34
2022-11-16T18:05:23.002Z,97258.22
2022-11-16T18:09:25.313Z,97273.16
2022-11-16T18:13:27.317Z,97264.69
2022-11-16T18:17:31.216Z,97279.13
2022-11-16T18:21:39.824Z,97284.47
2022-11-16T18:25:41.898Z,97296.72
2022-11-16T18:29:44.008Z,97300.50
2022-11-16T18:33:49.078Z,97290.13
2022-11-16T18:37:51.381Z,97295.28
2022-11-16T18:41:55.079Z,97295.44
2022-11-16T18:45:57.474Z,97294.91
2022-11-16T18:49:59.474Z,97301.91
2022-11-16T18:54:01.500Z,97296.34
2022-11-16T18:58:13.029Z,97300.16
2022-11-16T19:02:24.765Z,97301.91
2022-11-16T19:06:26.829Z,97303.72
2022-11-16T19:10:29.120Z,97309.66
2022-11-16T19:14:31.149Z,97308.06
2022-11-16T19:18:33.230Z,97313.84
2022-11-16T19:22:35.384Z,97317.78
2022-11-16T19:26:37.479Z,97306.13
2022-11-16T19:30:39.461Z,97304.16
2022-11-16T19:34:41.644Z,97302.22
2022-11-16T19:38:45.041Z,97308.34
2022-11-16T19:42:47.172Z,97301.44
2022-11-16T19:46:49.234Z,97305.41
2022-11-16T19:50:51.270Z,97308.38
2022-11-16T19:54:53.330Z,97314.59
2022-11-16T19:58:55.982Z,97312.00
2022-11-16T20:02:58.331Z,97323.03
2022-11-16T20:07:00.794Z,97328.75
2022-11-16T20:11:10.691Z,97332.28
2022-11-16T20:15:12.678Z,97323.34
2022-11-16T20:19:15.792Z,97325.31
2022-11-16T20:23:19.476Z,97328.63
2022-11-16T20:27:21.498Z,97330.00
2022-11-16T20:31:28.778Z,97329.78
2022-11-16T20:35:30.898Z,97333.84
2022-11-16T20:39:33.147Z,97339.53
2022-11-16T20:43:35.840Z,97337.25
2022-11-16T20:47:38.044Z,97337.03
2022-11-16T20:51:40.215Z,97344.88
2022-11-16T20:55:42.250Z,97350.59
2022-11-16T20:59:44.245Z,97338.91
2022-11-16T21:03:47.080Z,97343.94
2022-11-16T21:07:49.240Z,97338.09
2022-11-16T21:12:09.885Z,97344.69
2022-11-16T21:16:15.198Z,97334.13
2022-11-16T21:20:32.779Z,97346.66
2022-11-16T21:24:35.421Z,97345.31
2022-11-16T21:28:38.339Z,97343.75
2022-11-16T21:32:40.579Z,97343.69
2022-11-16T21:36:42.823Z,97332.03
2022-11-16T21:40:45.308Z,97332.84
2022-11-16T21:44:47.501Z,97335.00
2022-11-16T21:48:52.752Z,97340.09
2022-11-16T21:52:54.864Z,97338.66
2022-11-16T21:56:56.958Z,97334.84
2022-11-16T22:01:02.628Z,97342.53
2022-11-16T22:05:26.484Z,97343.25
2022-11-16T22:09:28.518Z,97344.53
2022-11-16T22:13:30.572Z,97354.59
2022-11-16T22:17:33.124Z,97356.69
2022-11-16T22:21:35.090Z,97352.88
2022-11-16T22:25:37.332Z,97351.69
2022-11-16T22:29:39.586Z,97355.84
2022-11-16T22:33:41.859Z,97360.69
2022-11-16T22:37:44.216Z,97356.69
2022-11-16T22:41:46.438Z,97354.13
2022-11-16T22:45:48.801Z,97349.75
2022-11-16T22:49:50.847Z,97353.09
2022-11-16T22:53:54.535Z,97355.41
2022-11-16T22:57:56.684Z,97367.41
2022-11-16T23:01:58.684Z,97361.09
2022-11-16T23:06:00.900Z,97361.59
2022-11-16T23:10:03.172Z,97361.56
2022-11-16T23:14:42.901Z,97370.78
2022-11-16T23:18:44.944Z,97374.78
2022-11-16T23:23:06.098Z,97364.97
2022-11-16T23:27:28.146Z,97368.56
2022-11-16T23:31:30.143Z,97363.59
2022-11-16T23:35:32.570Z,97363.00
2022-11-16T23:39:34.745Z,97355.41
2022-11-16T23:43:55.368Z,97350.53
2022-11-16T23:47:57.341Z,97349.59
2022-11-16T23:51:59.419Z,97345.41
2022-11-16T23:56:06.065Z,97343.47
